createdAt,value
2018-07-24T00:00:16.579Z,99.90
2018-07-24T00:02:45.019Z,99.90
2018-07-24T00:05:13.510Z,99.90
2018-07-24T00:07:42.304Z,99.90
2018-07-24T00:10:10.907Z,99.90
2018-07-24T00:12:39.364Z,99.90
2018-07-24T00:15:07.861Z,99.90
2018-07-24T00:17:36.342Z,99.90
2018-07-24T00:20:05.421Z,99.90
2018-07-24T00:22:33.879Z,99.90
2018-07-24T00:25:02.400Z,99.90
2018-07-24T00:27:30.811Z,99.90
2018-07-24T00:29:59.460Z,99.90
2018-07-24T00:32:27.884Z,99.90
2018-07-24T00:34:56.367Z,99.90
2018-07-24T00:37:24.767Z,99.90
2018-07-24T00:39:53.190Z,99.90
2018-07-24T00:42:21.687Z,99.90
2018-07-24T00:44:50.189Z,99.90
2018-07-24T00:47:18.696Z,99.90
2018-07-24T00:49:47.131Z,99.90
2018-07-24T00:52:15.566Z,99.90
2018-07-24T00:54:44.051Z,99.90
2018-07-24T00:57:12.523Z,99.90
2018-07-24T00:59:40.956Z,99.90
2018-07-24T01:02:12.819Z,99.90
2018-07-24T01:04:41.446Z,99.90
2018-07-24T01:07:09.912Z,99.90
2018-07-24T01:09:38.399Z,99.90
2018-07-24T01:12:06.990Z,99.90
2018-07-24T01:14:35.457Z,99.90
2018-07-24T01:17:04.032Z,99.90
2018-07-24T01:19:32.447Z,99.90
2018-07-24T01:22:00.863Z,99.90
2018-07-24T01:24:29.295Z,99.90
2018-07-24T01:26:57.820Z,99.90
2018-07-24T01:29:26.275Z,99.90
2018-07-24T01:31:54.718Z,99.90
2018-07-24T01:34:23.170Z,99.90
2018-07-24T01:36:51.695Z,99.90
2018-07-24T01:39:20.215Z,99.90
2018-07-24T01:41:48.633Z,99.90
2018-07-24T01:44:17.151Z,99.90
2018-07-24T01:46:45.576Z,99.90
2018-07-24T01:49:14.004Z,99.90
2018-07-24T01:51:42.439Z,99.90
2018-07-24T01:54:10.875Z,99.90
2018-07-24T01:56:39.320Z,99.90
2018-07-24T01:59:07.811Z,99.90
2018-07-24T02:01:36.255Z,99.90
2018-07-24T02:04:04.691Z,99.90
2018-07-24T02:06:33.131Z,99.90
2018-07-24T02:09:01.554Z,99.90
2018-07-24T02:11:30.004Z,99.90
2018-07-24T02:13:58.443Z,99.90
2018-07-24T02:16:26.933Z,99.90
2018-07-24T02:18:55.374Z,99.90
2018-07-24T02:21:23.868Z,99.90
2018-07-24T02:23:52.304Z,99.90
2018-07-24T02:26:20.759Z,99.90
2018-07-24T02:28:49.363Z,99.90
2018-07-24T02:31:17.777Z,99.90
2018-07-24T02:33:46.216Z,99.90
2018-07-24T02:36:14.639Z,99.90
2018-07-24T02:38:43.076Z,99.90
2018-07-24T02:41:11.510Z,99.90
2018-07-24T02:43:39.984Z,99.90
2018-07-24T02:46:08.456Z,99.90
2018-07-24T02:48:36.897Z,99.90
2018-07-24T02:51:05.312Z,99.90
2018-07-24T02:53:33.915Z,99.90
2018-07-24T02:56:02.351Z,99.90
2018-07-24T02:58:30.787Z,99.90
2018-07-24T03:00:59.220Z,99.90
2018-07-24T03:03:27.771Z,99.90
2018-07-24T03:05:56.225Z,99.90
2018-07-24T03:08:24.643Z,99.90
2018-07-24T03:10:53.086Z,99.90
2018-07-24T03:13:21.530Z,99.90
2018-07-24T03:15:49.982Z,99.90
2018-07-24T03:18:18.487Z,99.90
2018-07-24T03:20:46.942Z,99.90
2018-07-24T03:23:15.353Z,99.90
2018-07-24T03:25:43.796Z,99.90
2018-07-24T03:28:12.219Z,99.90
2018-07-24T03:30:40.672Z,99.90
2018-07-24T03:33:09.095Z,99.90
2018-07-24T03:35:37.642Z,99.90
2018-07-24T03:38:06.121Z,99.90
2018-07-24T03:40:34.682Z,99.90
2018-07-24T03:43:03.116Z,99.90
2018-07-24T03:45:31.546Z,99.90
2018-07-24T03:48:00.037Z,99.90
2018-07-24T03:50:28.499Z,99.90
2018-07-24T03:52:56.931Z,99.90
2018-07-24T03:55:25.387Z,99.90
2018-07-24T03:57:53.809Z,99.90
2018-07-24T04:00:22.337Z,99.90
2018-07-24T04:02:50.875Z,99.90
2018-07-24T04:05:19.487Z,99.90
2018-07-24T04:07:51.968Z,99.90
2018-07-24T04:10:21.715Z,99.90
2018-07-24T04:12:50.518Z,99.90
2018-07-24T04:15:18.952Z,99.90
2018-07-24T04:17:47.434Z,99.90
2018-07-24T04:20:15.911Z,99.90
2018-07-24T04:22:44.360Z,99.90
2018-07-24T04:25:12.868Z,99.90
2018-07-24T04:27:41.329Z,99.90
2018-07-24T04:30:09.758Z,99.90
2018-07-24T04:32:38.206Z,99.90
2018-07-24T04:35:06.665Z,99.90
2018-07-24T04:37:35.166Z,99.90
2018-07-24T04:40:03.768Z,99.90
2018-07-24T04:42:32.226Z,99.90
2018-07-24T04:45:00.671Z,99.90
2018-07-24T04:47:29.104Z,99.90
2018-07-24T04:49:57.563Z,99.90
2018-07-24T04:52:26.074Z,99.90
2018-07-24T04:54:54.664Z,99.90
2018-07-24T04:57:23.088Z,99.90
2018-07-24T04:59:51.554Z,99.90
2018-07-24T05:02:20.028Z,99.90
2018-07-24T05:04:48.612Z,99.90
2018-07-24T05:07:17.258Z,99.90
2018-07-24T05:09:45.771Z,99.90
2018-07-24T05:12:14.324Z,99.90
2018-07-24T05:14:42.771Z,99.90
2018-07-24T05:17:11.693Z,99.90
2018-07-24T05:19:40.335Z,99.90
2018-07-24T05:22:08.788Z,99.90
2018-07-24T05:24:37.262Z,99.90
2018-07-24T05:27:05.833Z,99.90
2018-07-24T05:29:34.246Z,99.90
2018-07-24T05:32:02.740Z,99.90
2018-07-24T05:34:31.180Z,99.90
2018-07-24T05:36:59.692Z,99.90
2018-07-24T05:39:28.133Z,99.90
2018-07-24T05:41:56.580Z,99.90
2018-07-24T05:44:25.052Z,99.90
2018-07-24T05:46:53.518Z,99.90
2018-07-24T05:49:21.983Z,99.90
2018-07-24T05:51:50.471Z,99.90
2018-07-24T05:54:18.907Z,99.90
2018-07-24T05:56:47.464Z,99.90
2018-07-24T05:59:15.916Z,99.90
2018-07-24T06:01:44.437Z,99.90
2018-07-24T06:04:12.921Z,99.90
2018-07-24T06:06:41.391Z,99.90
2018-07-24T06:09:10.429Z,99.90
2018-07-24T06:11:38.929Z,99.90
2018-07-24T06:14:07.386Z,99.90
2018-07-24T06:16:36.052Z,99.90
2018-07-24T06:19:04.508Z,99.90
2018-07-24T06:21:32.931Z,99.90
2018-07-24T06:24:01.423Z,99.90
2018-07-24T06:26:29.910Z,99.90
2018-07-24T06:28:58.358Z,99.90
2018-07-24T06:31:26.823Z,99.90
2018-07-24T06:33:55.282Z,99.90
2018-07-24T06:36:23.721Z,99.90
2018-07-24T06:38:52.174Z,99.90
2018-07-24T06:41:20.647Z,99.90
2018-07-24T06:43:49.101Z,99.90
2018-07-24T06:46:17.606Z,99.90
2018-07-24T06:48:46.055Z,99.90
2018-07-24T06:51:14.643Z,99.90
2018-07-24T06:53:43.040Z,99.90
2018-07-24T06:56:11.491Z,99.90
2018-07-24T06:58:39.980Z,99.90
2018-07-24T07:01:08.523Z,99.90
2018-07-24T07:03:37.607Z,99.90
2018-07-24T07:06:06.098Z,99.90
2018-07-24T07:08:34.547Z,99.90
2018-07-24T07:13:31.232Z,99.90
2018-07-24T07:15:59.615Z,99.90
2018-07-24T07:18:28.327Z,99.90
2018-07-24T07:20:56.875Z,99.90
2018-07-24T07:23:25.402Z,99.90
2018-07-24T07:25:53.807Z,99.90
2018-07-24T07:28:22.248Z,99.90
2018-07-24T07:30:50.670Z,99.90
2018-07-24T07:33:19.127Z,99.90
2018-07-24T07:35:47.649Z,99.90
2018-07-24T07:38:16.100Z,99.90
2018-07-24T07:43:12.717Z,99.90
2018-07-24T07:45:41.153Z,99.90
2018-07-24T07:48:09.607Z,99.90
2018-07-24T07:53:06.412Z,99.90
2018-07-24T07:55:34.989Z,99.90
2018-07-24T07:58:03.453Z,99.90
2018-07-24T08:00:31.871Z,99.90
2018-07-24T08:03:00.352Z,99.90
2018-07-24T08:05:28.780Z,99.90
2018-07-24T08:07:57.215Z,99.90
2018-07-24T08:10:25.898Z,99.90
2018-07-24T08:12:54.339Z,99.90
2018-07-24T08:15:22.787Z,99.90
2018-07-24T08:17:51.220Z,99.90
2018-07-24T08:20:19.692Z,99.90
2018-07-24T08:22:48.254Z,99.90
2018-07-24T08:25:16.891Z,99.90
2018-07-24T08:27:45.334Z,99.90
2018-07-24T08:30:13.951Z,99.90
2018-07-24T08:35:10.565Z,99.90
2018-07-24T08:37:38.979Z,99.90
2018-07-24T08:40:07.559Z,99.90
2018-07-24T08:42:35.984Z,99.90
2018-07-24T08:45:05.025Z,99.90
2018-07-24T08:47:33.479Z,99.90
2018-07-24T08:50:02.196Z,99.90
2018-07-24T08:52:30.755Z,99.90
2018-07-24T08:57:27.263Z,99.90
2018-07-24T08:59:55.802Z,99.90
2018-07-24T09:02:24.360Z,99.90
2018-07-24T09:04:52.931Z,99.90
2018-07-24T09:07:22.269Z,99.90
2018-07-24T09:09:50.703Z,99.90
2018-07-24T09:12:19.172Z,99.90
2018-07-24T09:14:47.734Z,98.70
2018-07-24T09:17:16.162Z,98.50
2018-07-24T09:19:44.607Z,99.00
2018-07-24T09:22:13.030Z,99.90
2018-07-24T09:24:41.471Z,99.90
2018-07-24T09:29:38.113Z,98.20
2018-07-24T09:32:06.593Z,99.90
2018-07-24T09:34:35.094Z,97.40
2018-07-24T09:37:03.524Z,96.80
2018-07-24T09:39:31.968Z,97.90
2018-07-24T09:42:00.387Z,97.80
2018-07-24T09:46:57.083Z,96.50
2018-07-24T09:49:25.652Z,97.30
2018-07-24T09:51:54.215Z,98.10
2018-07-24T09:56:50.775Z,96.20
2018-07-24T09:59:19.813Z,96.80
2018-07-24T10:01:48.316Z,96.90
2018-07-24T10:04:16.751Z,98.00
2018-07-24T10:06:45.219Z,95.60
2018-07-24T10:09:13.651Z,95.30
2018-07-24T10:11:42.167Z,96.60
2018-07-24T10:14:10.624Z,99.20
2018-07-24T10:19:07.327Z,99.90
2018-07-24T10:21:35.771Z,98.90
2018-07-24T10:29:00.487Z,96.00
2018-07-24T10:33:57.039Z,95.00
2018-07-24T10:38:53.748Z,94.20
2018-07-24T10:41:22.227Z,94.50
2018-07-24T10:43:50.735Z,94.00
2018-07-24T10:46:19.377Z,92.10
2018-07-24T10:48:47.820Z,93.50
2018-07-24T10:51:16.264Z,92.70
2018-07-24T10:53:44.859Z,95.00
2018-07-24T10:56:13.373Z,91.10
2018-07-24T10:58:41.851Z,90.70
2018-07-24T11:01:10.385Z,90.30
2018-07-24T11:03:38.952Z,85.20
2018-07-24T11:06:07.423Z,87.90
2018-07-24T11:08:35.844Z,91.10
2018-07-24T11:11:04.404Z,87.70
2018-07-24T11:13:32.887Z,90.60
2018-07-24T11:16:01.333Z,89.40
2018-07-24T11:18:29.787Z,81.20
2018-07-24T11:20:58.296Z,82.40
2018-07-24T11:23:27.144Z,88.00
2018-07-24T11:28:23.778Z,90.80
2018-07-24T11:30:52.226Z,91.00
2018-07-24T11:33:20.874Z,87.60
2018-07-24T11:35:49.651Z,87.00
2018-07-24T11:38:18.184Z,90.00
2018-07-24T11:40:46.688Z,90.60
2018-07-24T11:43:15.116Z,93.20
2018-07-24T11:45:44.531Z,92.20
2018-07-24T11:48:12.980Z,90.60
2018-07-24T11:50:41.400Z,90.70
2018-07-24T11:53:09.862Z,90.50
2018-07-24T11:55:38.462Z,91.30
2018-07-24T11:58:07.147Z,89.60
2018-07-24T12:00:35.606Z,87.50
2018-07-24T12:03:04.480Z,90.10
2018-07-24T12:05:32.935Z,92.80
2018-07-24T12:08:01.377Z,91.10
2018-07-24T12:10:29.971Z,91.20
2018-07-24T12:12:58.407Z,93.30
2018-07-24T12:15:26.852Z,92.10
2018-07-24T12:20:23.418Z,90.40
2018-07-24T12:22:51.898Z,92.60
2018-07-24T12:27:48.579Z,92.80
2018-07-24T12:30:17.071Z,93.30
2018-07-24T12:32:45.503Z,94.20
2018-07-24T12:35:13.943Z,93.40
2018-07-24T12:37:42.459Z,94.60
2018-07-24T12:40:10.917Z,94.30
2018-07-24T12:42:39.346Z,90.70
2018-07-24T12:45:07.785Z,91.90
2018-07-24T12:47:36.212Z,92.00
2018-07-24T12:50:04.723Z,90.40
2018-07-24T12:52:33.310Z,91.70
2018-07-24T12:55:01.690Z,90.30
2018-07-24T12:57:30.187Z,85.90
2018-07-24T12:59:58.684Z,85.20
2018-07-24T13:02:27.324Z,90.30
2018-07-24T13:04:55.781Z,87.60
2018-07-24T13:07:24.219Z,88.00
2018-07-24T13:09:53.429Z,87.50
2018-07-24T13:12:21.867Z,87.10
2018-07-24T13:14:50.315Z,89.00
2018-07-24T13:17:18.767Z,87.20
2018-07-24T13:19:47.285Z,86.30
2018-07-24T13:22:15.720Z,87.40
2018-07-24T13:24:44.554Z,89.10
2018-07-24T13:27:12.981Z,88.10
2018-07-24T13:29:41.431Z,84.10
2018-07-24T13:32:10.014Z,86.10
2018-07-24T13:34:38.389Z,82.60
2018-07-24T13:37:07.003Z,88.10
2018-07-24T13:39:35.431Z,87.40
2018-07-24T13:42:03.904Z,87.10
2018-07-24T13:44:32.343Z,84.60
2018-07-24T13:47:00.865Z,84.20
2018-07-24T13:49:29.393Z,84.50
2018-07-24T13:51:57.862Z,84.20
2018-07-24T13:54:26.306Z,82.50
2018-07-24T13:56:54.862Z,82.80
2018-07-24T13:59:23.324Z,84.20
2018-07-24T14:01:51.811Z,89.10
2018-07-24T14:04:20.230Z,89.70
2018-07-24T14:06:48.752Z,80.40
2018-07-24T14:09:17.196Z,76.80
2018-07-24T14:11:45.758Z,78.40
2018-07-24T14:14:14.350Z,78.10
2018-07-24T14:16:42.954Z,79.50
2018-07-24T14:19:11.407Z,80.20
2018-07-24T14:21:39.868Z,77.60
2018-07-24T14:24:08.463Z,74.80
2018-07-24T14:26:36.897Z,77.30
2018-07-24T14:29:05.347Z,78.90
2018-07-24T14:31:33.781Z,80.50
2018-07-24T14:34:02.216Z,77.40
2018-07-24T14:36:30.760Z,78.80
2018-07-24T14:38:59.235Z,79.60
2018-07-24T14:41:27.741Z,81.50
2018-07-24T14:43:56.172Z,80.70
2018-07-24T14:46:24.660Z,81.10
2018-07-24T14:48:53.093Z,79.40
2018-07-24T14:51:21.551Z,79.00
2018-07-24T14:53:50.083Z,82.20
2018-07-24T14:56:18.572Z,81.00
2018-07-24T14:58:47.057Z,79.50
2018-07-24T15:01:15.508Z,77.70
2018-07-24T15:03:43.949Z,77.30
2018-07-24T15:06:12.413Z,76.60
2018-07-24T15:08:40.845Z,78.70
2018-07-24T15:11:09.298Z,76.30
2018-07-24T15:13:37.774Z,82.20
2018-07-24T15:16:06.248Z,79.00
2018-07-24T15:18:34.693Z,78.90
2018-07-24T15:21:03.161Z,78.50
2018-07-24T15:23:31.724Z,79.50
2018-07-24T15:26:00.179Z,77.60
2018-07-24T15:28:28.651Z,77.00
2018-07-24T15:30:57.134Z,74.90
2018-07-24T15:33:25.632Z,79.20
2018-07-24T15:35:54.092Z,80.10
2018-07-24T15:38:22.552Z,74.70
2018-07-24T15:40:51.027Z,74.10
2018-07-24T15:43:19.479Z,77.20
2018-07-24T15:45:47.888Z,76.80
2018-07-24T15:48:16.355Z,77.00
2018-07-24T15:50:44.809Z,76.00
2018-07-24T15:53:13.235Z,76.50
2018-07-24T15:55:41.683Z,76.10
2018-07-24T15:58:10.111Z,74.40
2018-07-24T16:00:38.629Z,75.00
2018-07-24T16:03:07.250Z,78.00
2018-07-24T16:05:35.971Z,74.70
2018-07-24T16:08:04.523Z,72.50
2018-07-24T16:10:32.974Z,74.00
2018-07-24T16:13:01.550Z,75.40
2018-07-24T16:15:30.103Z,70.50
2018-07-24T16:17:58.672Z,72.10
2018-07-24T16:20:27.457Z,73.80
2018-07-24T16:22:55.874Z,73.00
2018-07-24T16:25:24.320Z,73.30
2018-07-24T16:27:52.790Z,72.80
2018-07-24T16:30:21.359Z,74.30
2018-07-24T16:32:49.787Z,73.70
2018-07-24T16:35:18.313Z,77.50
2018-07-24T16:37:46.945Z,75.80
2018-07-24T16:40:15.395Z,77.50
2018-07-24T16:42:43.979Z,77.30
2018-07-24T16:45:12.444Z,76.30
2018-07-24T16:47:41.011Z,78.50
2018-07-24T16:50:09.518Z,75.90
2018-07-24T16:52:38.015Z,74.90
2018-07-24T16:55:06.536Z,75.30
2018-07-24T16:57:35.017Z,75.20
2018-07-24T17:00:03.509Z,75.00
2018-07-24T17:02:32.111Z,74.50
2018-07-24T17:05:00.681Z,74.30
2018-07-24T17:07:29.152Z,77.70
2018-07-24T17:09:57.643Z,76.10
2018-07-24T17:12:26.114Z,78.10
2018-07-24T17:14:54.572Z,75.60
2018-07-24T17:17:23.095Z,74.80
2018-07-24T17:19:51.682Z,76.40
2018-07-24T17:22:20.049Z,76.40
2018-07-24T17:24:48.515Z,76.40
2018-07-24T17:27:17.002Z,78.10
2018-07-24T17:29:45.503Z,78.20
2018-07-24T17:32:13.955Z,76.80
2018-07-24T17:34:42.411Z,77.80
2018-07-24T17:37:10.976Z,76.70
2018-07-24T17:39:39.636Z,77.80
2018-07-24T17:42:08.156Z,75.70
2018-07-24T17:44:36.700Z,76.40
2018-07-24T17:47:05.114Z,75.40
2018-07-24T17:49:33.569Z,76.60
2018-07-24T17:52:02.007Z,76.50
2018-07-24T17:54:30.612Z,77.50
2018-07-24T17:56:59.097Z,77.70
2018-07-24T17:59:27.581Z,78.10
2018-07-24T18:01:56.146Z,78.20
2018-07-24T18:04:24.576Z,78.90
2018-07-24T18:06:53.139Z,78.10
2018-07-24T18:09:21.585Z,77.60
2018-07-24T18:11:50.131Z,78.30
2018-07-24T18:14:18.598Z,79.00
2018-07-24T18:16:47.078Z,78.50
2018-07-24T18:19:15.496Z,79.90
2018-07-24T18:21:43.933Z,81.20
2018-07-24T18:24:12.454Z,80.70
2018-07-24T18:26:40.941Z,81.00
2018-07-24T18:29:09.395Z,81.20
2018-07-24T18:31:37.984Z,82.80
2018-07-24T18:34:07.274Z,81.60
2018-07-24T18:36:35.760Z,81.50
2018-07-24T18:39:06.281Z,84.40
2018-07-24T18:41:34.896Z,85.70
2018-07-24T18:44:03.444Z,83.50
2018-07-24T18:46:31.883Z,83.60
2018-07-24T18:49:00.425Z,86.10
2018-07-24T18:51:28.928Z,85.30
2018-07-24T18:53:57.409Z,85.10
2018-07-24T18:56:25.870Z,85.60
2018-07-24T18:58:54.489Z,85.90
2018-07-24T19:01:23.034Z,86.40
2018-07-24T19:03:51.489Z,87.80
2018-07-24T19:06:19.940Z,87.30
2018-07-24T19:08:48.371Z,90.50
2018-07-24T19:11:16.903Z,91.70
2018-07-24T19:13:45.336Z,92.00
2018-07-24T19:16:13.999Z,91.90
2018-07-24T19:18:42.591Z,92.30
2018-07-24T19:21:11.295Z,93.30
2018-07-24T19:23:39.756Z,92.90
2018-07-24T19:26:08.415Z,92.90
2018-07-24T19:28:37.006Z,93.20
2018-07-24T19:31:05.717Z,94.30
2018-07-24T19:33:34.172Z,92.90
2018-07-24T19:36:02.624Z,95.00
2018-07-24T19:38:31.114Z,96.40
2018-07-24T19:40:59.574Z,97.80
2018-07-24T19:43:28.150Z,96.70
2018-07-24T19:45:56.718Z,95.20
2018-07-24T19:48:25.191Z,96.20
2018-07-24T19:50:53.736Z,96.80
2018-07-24T19:53:22.231Z,96.90
2018-07-24T19:55:50.674Z,96.60
2018-07-24T19:58:19.152Z,96.10
2018-07-24T20:00:47.672Z,96.20
2018-07-24T20:03:16.271Z,96.30
2018-07-24T20:05:44.709Z,95.80
2018-07-24T20:08:13.176Z,96.00
2018-07-24T20:10:41.859Z,96.20
2018-07-24T20:13:10.956Z,95.80
2018-07-24T20:15:39.560Z,95.80
2018-07-24T20:18:08.015Z,96.10
2018-07-24T20:20:36.489Z,97.10
2018-07-24T20:23:05.500Z,98.50
2018-07-24T20:25:33.979Z,99.60
2018-07-24T20:28:02.471Z,99.90
2018-07-24T20:30:30.984Z,99.90
2018-07-24T20:32:59.565Z,99.90
2018-07-24T20:35:28.065Z,99.90
2018-07-24T20:37:56.659Z,99.90
2018-07-24T20:40:25.310Z,99.90
2018-07-24T20:42:53.830Z,99.90
2018-07-24T20:45:22.344Z,99.90
2018-07-24T20:47:50.808Z,99.90
2018-07-24T20:50:19.292Z,99.90
2018-07-24T20:52:47.903Z,99.90
2018-07-24T20:55:16.371Z,99.90
2018-07-24T20:57:44.883Z,99.90
2018-07-24T21:00:13.396Z,99.90
2018-07-24T21:02:41.900Z,99.90
2018-07-24T21:05:10.516Z,99.90
2018-07-24T21:07:39.079Z,99.90
2018-07-24T21:10:12.925Z,99.90
2018-07-24T21:12:41.428Z,99.90
2018-07-24T21:15:10.012Z,99.90
2018-07-24T21:17:38.706Z,99.90
2018-07-24T21:20:07.383Z,99.90
2018-07-24T21:22:36.011Z,99.90
2018-07-24T21:25:04.697Z,99.90
2018-07-24T21:27:33.679Z,99.90
2018-07-24T21:30:02.184Z,99.90
2018-07-24T21:32:30.724Z,99.90
2018-07-24T21:34:59.326Z,99.90
2018-07-24T21:37:28.317Z,99.90
2018-07-24T21:39:56.876Z,99.90
2018-07-24T21:42:25.824Z,99.90
2018-07-24T21:44:54.387Z,99.90
2018-07-24T21:47:22.943Z,99.90
2018-07-24T21:49:51.883Z,99.90
2018-07-24T21:52:20.386Z,99.90
2018-07-24T21:54:48.934Z,99.90
2018-07-24T21:57:17.600Z,99.90
2018-07-24T21:59:46.065Z,99.90
2018-07-24T22:02:14.728Z,99.90
2018-07-24T22:04:44.310Z,99.90
2018-07-24T22:07:12.787Z,99.90
2018-07-24T22:09:41.300Z,99.90
2018-07-24T22:12:10.196Z,99.90
2018-07-24T22:14:38.824Z,99.90
2018-07-24T22:17:07.848Z,99.90
2018-07-24T22:19:36.628Z,99.90
2018-07-24T22:22:05.159Z,99.90
2018-07-24T22:24:33.718Z,99.90
2018-07-24T22:27:03.849Z,99.90
2018-07-24T22:29:32.322Z,99.90
2018-07-24T22:32:00.823Z,99.90
2018-07-24T22:34:29.615Z,99.90
2018-07-24T22:36:58.320Z,99.90
2018-07-24T22:39:26.828Z,99.90
2018-07-24T22:41:55.272Z,99.90
2018-07-24T22:44:23.843Z,99.90
2018-07-24T22:46:52.356Z,99.90
2018-07-24T22:49:20.802Z,99.90
2018-07-24T22:51:49.223Z,99.90
2018-07-24T22:54:17.687Z,99.90
2018-07-24T22:56:46.304Z,99.90
2018-07-24T22:59:14.815Z,99.90
2018-07-24T23:01:43.256Z,99.90
2018-07-24T23:04:11.767Z,99.90
2018-07-24T23:06:40.239Z,99.90
2018-07-24T23:09:10.176Z,99.90
2018-07-24T23:11:39.275Z,99.90
2018-07-24T23:14:07.688Z,99.90
2018-07-24T23:16:36.195Z,99.90
2018-07-24T23:19:04.680Z,99.90
2018-07-24T23:21:33.201Z,99.90
2018-07-24T23:24:01.706Z,99.90
2018-07-24T23:26:30.195Z,99.90
2018-07-24T23:28:58.624Z,99.90
2018-07-24T23:31:27.198Z,99.90
2018-07-24T23:33:55.663Z,99.90
2018-07-24T23:36:24.085Z,99.90
2018-07-24T23:38:52.623Z,99.90
2018-07-24T23:41:21.064Z,99.90
2018-07-24T23:43:49.515Z,99.90
2018-07-24T23:46:18.099Z,99.90
2018-07-24T23:48:46.577Z,99.90
2018-07-24T23:53:43.274Z,99.90
2018-07-24T23:56:11.691Z,99.90
2018-07-24T23:58:40.172Z,99.90
